createdAt,value
2019-03-03T00:00:56.636Z,8.39
2019-03-03T00:03:27.622Z,8.29
2019-03-03T00:05:58.791Z,8.26
2019-03-03T00:08:29.701Z,8.21
2019-03-03T00:11:00.665Z,8.14
2019-03-03T00:13:31.703Z,8.16
2019-03-03T00:16:02.647Z,8.19
2019-03-03T00:18:33.651Z,8.20
2019-03-03T00:21:04.686Z,8.22
2019-03-03T00:23:35.621Z,8.16
2019-03-03T00:26:06.584Z,8.21
2019-03-03T00:28:37.862Z,8.21
2019-03-03T00:31:08.896Z,8.21
2019-03-03T00:33:44.821Z,8.15
2019-03-03T00:36:16.771Z,8.13
2019-03-03T00:38:58.504Z,8.16
2019-03-03T00:41:49.488Z,8.20
2019-03-03T00:44:22.092Z,8.23
2019-03-03T00:47:01.327Z,8.26
2019-03-03T00:49:33.898Z,8.25
2019-03-03T00:52:09.694Z,8.29
2019-03-03T00:54:45.288Z,8.28
2019-03-03T00:57:26.648Z,8.28
2019-03-03T01:00:01.853Z,8.32
2019-03-03T01:02:37.184Z,8.36
2019-03-03T01:05:13.410Z,8.36
2019-03-03T01:07:52.284Z,8.44
2019-03-03T01:10:24.952Z,8.46
2019-03-03T01:13:00.534Z,8.48
2019-03-03T01:15:45.013Z,8.46
2019-03-03T01:18:20.236Z,8.44
2019-03-03T01:20:58.517Z,8.47
2019-03-03T01:23:47.650Z,8.43
2019-03-03T01:26:18.550Z,8.38
2019-03-03T01:28:49.503Z,8.39
2019-03-03T01:31:20.395Z,8.37
2019-03-03T01:33:51.368Z,8.35
2019-03-03T01:36:22.300Z,8.33
2019-03-03T01:38:53.239Z,8.32
2019-03-03T01:41:24.257Z,8.31
2019-03-03T01:43:55.327Z,8.29
2019-03-03T01:46:26.355Z,8.30
2019-03-03T01:48:57.370Z,8.31
2019-03-03T01:51:28.430Z,8.32
2019-03-03T01:53:59.288Z,8.34
2019-03-03T01:56:30.238Z,8.33
2019-03-03T01:59:01.124Z,8.33
2019-03-03T02:01:32.165Z,8.35
2019-03-03T02:04:03.999Z,8.35
2019-03-03T02:06:34.954Z,8.35
2019-03-03T02:09:08.876Z,8.37
2019-03-03T02:11:40.327Z,8.40
2019-03-03T02:14:11.272Z,8.41
2019-03-03T02:16:42.240Z,8.42
2019-03-03T02:19:13.242Z,8.45
2019-03-03T02:21:44.232Z,8.37
2019-03-03T02:24:15.239Z,8.33
2019-03-03T02:26:46.287Z,8.36
2019-03-03T02:29:17.390Z,8.36
2019-03-03T02:31:48.327Z,8.36
2019-03-03T02:34:19.281Z,8.32
2019-03-03T02:36:50.305Z,8.32
2019-03-03T02:39:21.311Z,8.31
2019-03-03T02:41:52.185Z,8.29
2019-03-03T02:44:23.121Z,8.30
2019-03-03T02:46:54.019Z,8.31
2019-03-03T02:49:25.092Z,8.34
2019-03-03T02:51:56.145Z,8.29
2019-03-03T02:54:27.083Z,8.33
2019-03-03T02:56:58.143Z,8.31
2019-03-03T02:59:29.028Z,8.29
2019-03-03T03:02:00.531Z,8.33
2019-03-03T03:04:31.517Z,8.38
2019-03-03T03:07:07.014Z,8.29
2019-03-03T03:09:39.624Z,8.29
2019-03-03T03:12:14.797Z,8.26
2019-03-03T03:14:50.285Z,8.19
2019-03-03T03:17:39.225Z,8.17
2019-03-03T03:20:14.545Z,8.17
2019-03-03T03:22:52.872Z,8.16
2019-03-03T03:25:25.370Z,8.13
2019-03-03T03:27:59.057Z,8.14
2019-03-03T03:30:31.631Z,8.13
2019-03-03T03:33:20.627Z,8.09
2019-03-03T03:36:05.629Z,8.13
2019-03-03T03:38:38.136Z,8.13
2019-03-03T03:41:22.662Z,8.14
2019-03-03T03:44:04.704Z,8.13
2019-03-03T03:46:37.371Z,8.14
2019-03-03T03:49:09.907Z,8.15
2019-03-03T03:51:44.839Z,8.12
2019-03-03T03:54:22.986Z,8.10
2019-03-03T03:56:55.664Z,8.10
2019-03-03T03:59:37.276Z,8.08
2019-03-03T04:02:09.936Z,8.00
2019-03-03T04:04:54.987Z,8.00
2019-03-03T04:07:27.629Z,7.95
2019-03-03T04:10:00.512Z,7.91
2019-03-03T04:12:33.246Z,7.92
2019-03-03T04:15:23.804Z,7.94
2019-03-03T04:18:02.349Z,7.98
2019-03-03T04:20:51.161Z,8.04
2019-03-03T04:23:41.679Z,8.13
2019-03-03T04:26:14.261Z,8.14
2019-03-03T04:28:46.758Z,8.21
2019-03-03T04:31:19.278Z,8.16
2019-03-03T04:33:51.936Z,8.24
2019-03-03T04:36:27.473Z,8.21
2019-03-03T04:39:00.315Z,8.23
2019-03-03T04:41:32.889Z,8.26
2019-03-03T04:44:08.527Z,8.23
2019-03-03T04:46:44.002Z,8.24
2019-03-03T04:49:28.574Z,8.26
2019-03-03T04:52:01.226Z,8.29
2019-03-03T04:54:33.750Z,8.32
2019-03-03T04:57:18.454Z,8.30
2019-03-03T05:00:07.340Z,8.32
2019-03-03T05:02:45.474Z,8.30
2019-03-03T05:05:18.147Z,8.23
2019-03-03T05:07:59.676Z,8.13
2019-03-03T05:10:48.397Z,8.05
2019-03-03T05:13:23.486Z,7.96
2019-03-03T05:16:12.618Z,7.93
2019-03-03T05:18:51.152Z,7.90
2019-03-03T05:21:22.104Z,7.81
2019-03-03T05:23:52.989Z,7.76
2019-03-03T05:26:24.019Z,7.74
2019-03-03T05:28:55.141Z,7.68
2019-03-03T05:31:26.341Z,7.58
2019-03-03T05:33:57.291Z,7.55
2019-03-03T05:36:28.216Z,7.57
2019-03-03T05:38:59.432Z,7.60
2019-03-03T05:41:30.445Z,7.55
2019-03-03T05:44:01.343Z,7.54
2019-03-03T05:46:32.241Z,7.59
2019-03-03T05:49:03.267Z,7.66
2019-03-03T05:51:34.208Z,7.79
2019-03-03T05:54:05.280Z,7.78
2019-03-03T05:56:36.165Z,7.84
2019-03-03T05:59:07.051Z,7.88
2019-03-03T06:01:38.046Z,7.92
2019-03-03T06:04:08.874Z,7.92
2019-03-03T06:06:39.834Z,7.96
2019-03-03T06:09:10.704Z,7.98
2019-03-03T06:11:41.727Z,7.99
2019-03-03T06:14:12.963Z,8.01
2019-03-03T06:16:43.919Z,8.02
2019-03-03T06:19:14.759Z,8.08
2019-03-03T06:21:45.738Z,8.13
2019-03-03T06:24:16.687Z,8.18
2019-03-03T06:26:48.059Z,8.22
2019-03-03T06:29:18.924Z,8.22
2019-03-03T06:31:49.972Z,8.23
2019-03-03T06:34:20.846Z,8.25
2019-03-03T06:36:51.792Z,8.25
2019-03-03T06:39:22.712Z,8.26
2019-03-03T06:41:53.639Z,8.26
2019-03-03T06:44:24.587Z,8.25
2019-03-03T06:46:55.520Z,8.34
2019-03-03T06:49:26.448Z,8.44
2019-03-03T06:51:57.364Z,8.49
2019-03-03T06:54:28.382Z,8.53
2019-03-03T06:56:59.268Z,8.61
2019-03-03T06:59:30.232Z,8.69
2019-03-03T07:02:01.120Z,8.83
2019-03-03T07:04:31.982Z,8.95
2019-03-03T07:07:02.939Z,9.04
2019-03-03T07:09:33.862Z,9.12
2019-03-03T07:12:04.868Z,9.21
2019-03-03T07:14:35.892Z,9.24
2019-03-03T07:17:06.852Z,9.29
2019-03-03T07:19:37.776Z,9.33
2019-03-03T07:22:08.830Z,9.34
2019-03-03T07:24:39.770Z,9.38
2019-03-03T07:27:11.165Z,9.43
2019-03-03T07:29:42.065Z,9.53
2019-03-03T07:32:13.090Z,9.60
2019-03-03T07:34:43.958Z,9.69
2019-03-03T07:37:14.841Z,9.77
2019-03-03T07:39:45.887Z,9.84
2019-03-03T07:42:16.795Z,9.94
2019-03-03T07:44:48.117Z,10.06
2019-03-03T07:47:19.218Z,10.12
2019-03-03T07:49:50.164Z,10.20
2019-03-03T07:52:21.175Z,10.19
2019-03-03T07:54:52.216Z,10.19
2019-03-03T07:57:23.109Z,10.24
2019-03-03T07:59:53.966Z,10.28
2019-03-03T08:02:24.972Z,10.39
2019-03-03T08:04:56.007Z,10.56
2019-03-03T08:07:26.978Z,10.64
2019-03-03T08:09:58.515Z,10.73
2019-03-03T08:12:29.449Z,10.94
2019-03-03T08:15:00.342Z,10.95
2019-03-03T08:17:31.420Z,10.89
2019-03-03T08:20:02.374Z,10.90
2019-03-03T08:22:35.085Z,10.92
2019-03-03T08:25:10.679Z,11.02
2019-03-03T08:27:41.750Z,11.06
2019-03-03T08:30:19.468Z,11.05
2019-03-03T08:32:50.411Z,10.95
2019-03-03T08:35:29.333Z,11.10
2019-03-03T08:38:01.083Z,11.03
2019-03-03T08:40:35.365Z,10.94
2019-03-03T08:43:07.993Z,10.90
2019-03-03T08:45:46.733Z,10.88
2019-03-03T08:48:19.413Z,10.78
2019-03-03T08:51:04.062Z,10.65
2019-03-03T08:53:36.810Z,10.69
2019-03-03T08:56:12.302Z,10.77
2019-03-03T08:58:47.998Z,10.84
2019-03-03T09:01:36.866Z,10.80
2019-03-03T09:04:21.101Z,10.85
2019-03-03T09:06:56.233Z,10.96
2019-03-03T09:09:39.125Z,10.99
2019-03-03T09:12:11.825Z,10.97
2019-03-03T09:14:44.343Z,10.93
2019-03-03T09:17:32.486Z,11.03
2019-03-03T09:20:07.179Z,11.21
2019-03-03T09:22:39.750Z,11.24
2019-03-03T09:25:27.427Z,11.26
2019-03-03T09:28:03.119Z,11.16
2019-03-03T09:30:44.732Z,11.12
2019-03-03T09:33:33.946Z,10.92
2019-03-03T09:36:09.271Z,10.96
2019-03-03T09:38:50.828Z,11.05
2019-03-03T09:41:26.243Z,11.02
2019-03-03T09:44:14.238Z,10.96
2019-03-03T09:46:52.939Z,11.02
2019-03-03T09:49:39.257Z,11.01
2019-03-03T09:52:11.828Z,10.99
2019-03-03T09:54:44.497Z,11.04
2019-03-03T09:57:17.309Z,11.03
2019-03-03T09:59:49.947Z,11.13
2019-03-03T10:02:22.657Z,11.11
2019-03-03T10:05:10.591Z,11.15
2019-03-03T10:07:58.517Z,11.32
2019-03-03T10:10:37.293Z,11.37
2019-03-03T10:13:22.071Z,11.63
2019-03-03T10:15:55.541Z,11.80
2019-03-03T10:18:32.132Z,12.03
2019-03-03T10:21:04.673Z,11.87
2019-03-03T10:23:46.462Z,12.07
2019-03-03T10:26:31.065Z,12.45
2019-03-03T10:29:19.005Z,12.48
2019-03-03T10:32:08.224Z,12.51
2019-03-03T10:34:50.385Z,12.79
2019-03-03T10:37:25.814Z,12.63
2019-03-03T10:40:25.631Z,12.36
2019-03-03T10:43:06.744Z,12.11
2019-03-03T10:45:48.238Z,11.88
2019-03-03T10:48:23.547Z,12.11
2019-03-03T10:50:58.931Z,12.10
2019-03-03T10:53:31.645Z,12.04
2019-03-03T10:56:21.547Z,11.79
2019-03-03T10:59:00.992Z,11.70
2019-03-03T11:01:49.944Z,11.63
2019-03-03T11:04:28.385Z,11.67
2019-03-03T11:07:06.745Z,11.80
2019-03-03T11:09:39.325Z,11.85
2019-03-03T11:12:30.159Z,11.75
2019-03-03T11:15:05.532Z,11.77
2019-03-03T11:17:54.586Z,11.81
2019-03-03T11:20:39.686Z,11.88
2019-03-03T11:23:28.678Z,11.87
2019-03-03T11:26:13.527Z,12.03
2019-03-03T11:29:02.621Z,12.04
2019-03-03T11:31:47.223Z,11.89
2019-03-03T11:34:19.917Z,11.83
2019-03-03T11:36:52.658Z,11.78
2019-03-03T11:39:35.139Z,11.86
2019-03-03T11:42:07.950Z,11.91
2019-03-03T11:44:46.196Z,11.96
2019-03-03T11:47:35.228Z,11.76
2019-03-03T11:50:17.248Z,11.75
2019-03-03T11:52:52.385Z,11.63
2019-03-03T11:55:25.282Z,11.57
2019-03-03T11:58:00.439Z,11.58
2019-03-03T12:00:36.604Z,11.63
2019-03-03T12:03:25.895Z,11.66
2019-03-03T12:05:58.624Z,11.70
2019-03-03T12:08:31.229Z,11.67
2019-03-03T12:11:03.852Z,11.71
2019-03-03T12:13:39.140Z,11.64
2019-03-03T12:16:18.898Z,11.60
2019-03-03T12:18:51.601Z,11.55
2019-03-03T12:21:24.362Z,11.61
2019-03-03T12:24:05.868Z,11.62
2019-03-03T12:26:54.584Z,11.66
2019-03-03T12:29:42.038Z,11.91
2019-03-03T12:32:20.651Z,11.96
2019-03-03T12:35:09.628Z,11.94
2019-03-03T12:37:49.231Z,12.06
2019-03-03T12:40:24.734Z,12.08
2019-03-03T12:43:00.072Z,11.88
2019-03-03T12:45:38.998Z,11.98
2019-03-03T12:48:13.284Z,11.93
2019-03-03T12:50:48.577Z,11.92
2019-03-03T12:53:25.788Z,11.90
2019-03-03T12:56:14.153Z,11.92
2019-03-03T12:58:55.870Z,11.94
2019-03-03T13:01:45.367Z,11.83
2019-03-03T13:04:21.358Z,11.85
2019-03-03T13:06:59.794Z,11.88
2019-03-03T13:09:35.301Z,11.85
2019-03-03T13:12:23.760Z,11.87
2019-03-03T13:15:04.945Z,11.78
2019-03-03T13:17:48.310Z,11.81
2019-03-03T13:20:20.688Z,11.93
2019-03-03T13:22:59.537Z,12.02
2019-03-03T13:25:41.093Z,12.00
2019-03-03T13:28:30.057Z,11.93
2019-03-03T13:31:16.353Z,11.97
2019-03-03T13:34:06.590Z,12.01
2019-03-03T13:36:48.648Z,12.02
2019-03-03T13:39:21.517Z,12.04
2019-03-03T13:42:10.531Z,12.06
2019-03-03T13:44:45.746Z,12.17
2019-03-03T13:47:16.909Z,12.20
2019-03-03T13:49:47.894Z,12.20
2019-03-03T13:52:21.739Z,12.16
2019-03-03T13:54:54.174Z,12.16
2019-03-03T13:57:26.488Z,12.11
2019-03-03T13:59:58.901Z,12.04
2019-03-03T14:02:29.942Z,11.98
2019-03-03T14:05:01.226Z,11.88
2019-03-03T14:07:33.787Z,11.88
2019-03-03T14:10:06.840Z,11.90
2019-03-03T14:12:39.721Z,11.91
2019-03-03T14:15:13.233Z,11.93
2019-03-03T14:20:22.796Z,12.01
2019-03-03T14:22:54.292Z,12.06
2019-03-03T14:25:25.698Z,12.05
2019-03-03T14:27:57.069Z,12.01
2019-03-03T14:30:29.045Z,12.01
2019-03-03T14:33:00.111Z,12.02
2019-03-03T14:35:31.113Z,11.98
2019-03-03T14:38:02.154Z,11.99
2019-03-03T14:40:33.378Z,11.98
2019-03-03T14:43:04.753Z,12.03
2019-03-03T14:45:38.647Z,12.11
2019-03-03T14:48:11.008Z,12.08
2019-03-03T14:50:41.945Z,12.07
2019-03-03T14:53:12.863Z,12.14
2019-03-03T14:55:43.790Z,12.14
2019-03-03T14:58:15.011Z,12.17
2019-03-03T15:00:46.063Z,12.21
2019-03-03T15:03:17.178Z,12.28
2019-03-03T15:05:48.950Z,12.24
2019-03-03T15:08:19.909Z,12.23
2019-03-03T15:10:51.783Z,12.22
2019-03-03T15:13:22.748Z,12.20
2019-03-03T15:15:53.780Z,12.19
2019-03-03T15:18:24.738Z,12.10
2019-03-03T15:20:55.722Z,12.10
2019-03-03T15:23:26.655Z,12.10
2019-03-03T15:25:57.619Z,12.10
2019-03-03T15:28:32.496Z,12.14
2019-03-03T15:31:03.604Z,12.18
2019-03-03T15:33:34.590Z,12.19
2019-03-03T15:36:05.704Z,12.21
2019-03-03T15:38:36.856Z,12.19
2019-03-03T15:41:07.882Z,12.12
2019-03-03T15:43:38.746Z,12.12
2019-03-03T15:46:09.723Z,12.10
2019-03-03T15:48:40.691Z,12.06
2019-03-03T15:51:11.854Z,12.06
2019-03-03T15:53:43.097Z,12.02
2019-03-03T15:56:16.008Z,11.97
2019-03-03T15:58:55.404Z,11.95
2019-03-03T16:01:20.102Z,11.92
2019-03-03T16:03:51.134Z,11.90
2019-03-03T16:06:22.172Z,11.90
2019-03-03T16:08:53.279Z,11.89
2019-03-03T16:11:24.523Z,11.85
2019-03-03T16:13:55.487Z,11.87
2019-03-03T16:16:26.462Z,11.87
2019-03-03T16:18:57.447Z,11.87
2019-03-03T16:21:28.494Z,11.84
2019-03-03T16:23:59.742Z,11.83
2019-03-03T16:26:30.770Z,11.82
2019-03-03T16:29:01.778Z,11.79
2019-03-03T16:31:32.704Z,11.76
2019-03-03T16:34:03.826Z,11.76
2019-03-03T16:36:38.123Z,11.72
2019-03-03T16:39:09.957Z,11.70
2019-03-03T16:41:40.844Z,11.69
2019-03-03T16:44:11.882Z,11.69
2019-03-03T16:46:43.030Z,11.63
2019-03-03T16:49:13.980Z,11.59
2019-03-03T16:51:45.128Z,11.58
2019-03-03T16:54:16.090Z,11.54
2019-03-03T16:56:47.142Z,11.54
2019-03-03T16:59:18.249Z,11.59
2019-03-03T17:01:49.372Z,11.56
2019-03-03T17:04:20.512Z,11.52
2019-03-03T17:06:51.768Z,11.50
2019-03-03T17:09:25.979Z,11.51
2019-03-03T17:11:57.151Z,11.51
2019-03-03T17:14:28.364Z,11.51
2019-03-03T17:17:02.223Z,11.53
2019-03-03T17:19:33.455Z,11.51
2019-03-03T17:22:05.028Z,11.46
2019-03-03T17:24:36.309Z,11.45
2019-03-03T17:27:07.518Z,11.42
2019-03-03T17:29:38.502Z,11.42
2019-03-03T17:32:09.469Z,11.39
2019-03-03T17:34:40.886Z,11.41
2019-03-03T17:37:12.441Z,11.41
2019-03-03T17:39:43.661Z,11.42
2019-03-03T17:42:16.883Z,11.40
2019-03-03T17:44:50.836Z,11.38
2019-03-03T17:47:21.792Z,11.34
2019-03-03T17:49:52.858Z,11.30
2019-03-03T17:52:23.950Z,11.23
2019-03-03T17:54:55.377Z,11.12
2019-03-03T17:57:26.525Z,11.04
2019-03-03T17:59:57.539Z,10.97
2019-03-03T18:02:29.609Z,10.92
2019-03-03T18:05:00.827Z,10.88
2019-03-03T18:07:31.922Z,10.84
2019-03-03T18:10:03.501Z,10.79
2019-03-03T18:12:34.635Z,10.75
2019-03-03T18:15:08.547Z,10.76
2019-03-03T18:17:40.113Z,10.70
2019-03-03T18:20:22.067Z,10.64
2019-03-03T18:22:53.249Z,10.58
2019-03-03T18:25:24.248Z,10.53
2019-03-03T18:27:55.271Z,10.54
2019-03-03T18:30:29.535Z,10.53
2019-03-03T18:33:00.543Z,10.51
2019-03-03T18:35:31.589Z,10.47
2019-03-03T18:38:02.617Z,10.48
2019-03-03T18:40:33.769Z,10.51
2019-03-03T18:43:04.796Z,10.51
2019-03-03T18:45:35.848Z,10.46
2019-03-03T18:48:06.875Z,10.42
2019-03-03T18:50:37.911Z,10.40
2019-03-03T18:53:08.851Z,10.42
2019-03-03T18:55:39.845Z,10.38
2019-03-03T18:58:10.791Z,10.37
2019-03-03T19:00:41.847Z,10.30
2019-03-03T19:03:13.017Z,10.25
2019-03-03T19:05:44.064Z,10.19
2019-03-03T19:08:15.332Z,10.16
2019-03-03T19:10:46.410Z,10.12
2019-03-03T19:13:17.678Z,10.13
2019-03-03T19:15:48.663Z,10.10
2019-03-03T19:18:19.727Z,10.08
2019-03-03T19:20:50.829Z,10.07
2019-03-03T19:23:22.751Z,10.05
2019-03-03T19:25:53.888Z,10.00
2019-03-03T19:28:36.435Z,9.95
2019-03-03T19:31:14.488Z,9.92
2019-03-03T19:33:48.652Z,9.90
2019-03-03T19:36:19.700Z,9.84
2019-03-03T19:38:52.176Z,9.83
2019-03-03T19:41:24.815Z,9.80
2019-03-03T19:43:55.885Z,9.76
2019-03-03T19:46:27.152Z,9.69
2019-03-03T19:48:58.180Z,9.57
2019-03-03T19:51:29.294Z,9.46
2019-03-03T19:54:00.288Z,9.39
2019-03-03T19:56:37.631Z,9.36
2019-03-03T19:59:08.693Z,9.31
2019-03-03T20:01:41.984Z,9.29
2019-03-03T20:04:13.189Z,9.29
2019-03-03T20:06:44.995Z,9.22
2019-03-03T20:09:17.963Z,9.18
2019-03-03T20:11:49.026Z,9.16
2019-03-03T20:14:20.056Z,9.13
2019-03-03T20:16:51.385Z,9.13
2019-03-03T20:19:22.370Z,9.10
2019-03-03T20:21:54.612Z,9.05
2019-03-03T20:24:28.434Z,8.89
2019-03-03T20:26:59.724Z,8.76
2019-03-03T20:29:34.014Z,8.71
2019-03-03T20:32:06.874Z,8.69
2019-03-03T20:34:38.059Z,8.70
2019-03-03T20:37:09.264Z,8.73
2019-03-03T20:39:40.146Z,8.75
2019-03-03T20:42:11.563Z,8.82
2019-03-03T20:44:45.650Z,8.86
2019-03-03T20:47:17.230Z,8.84
2019-03-03T20:49:48.120Z,8.79
2019-03-03T20:52:19.182Z,8.81
2019-03-03T20:54:50.090Z,8.78
2019-03-03T20:57:21.720Z,8.78
2019-03-03T20:59:52.911Z,8.82
2019-03-03T21:02:26.327Z,8.88
2019-03-03T21:04:58.038Z,8.88
2019-03-03T21:07:28.916Z,8.90
2019-03-03T21:10:01.247Z,8.92
2019-03-03T21:12:32.542Z,8.92
2019-03-03T21:15:06.330Z,8.90
2019-03-03T21:17:37.361Z,8.91
2019-03-03T21:20:11.046Z,8.93
2019-03-03T21:22:42.659Z,8.94
2019-03-03T21:25:15.144Z,8.90
2019-03-03T21:27:46.818Z,8.87
2019-03-03T21:30:19.615Z,8.87
2019-03-03T21:32:50.629Z,8.89
2019-03-03T21:35:21.642Z,8.92
2019-03-03T21:37:52.911Z,8.97
2019-03-03T21:40:28.030Z,9.02
2019-03-03T21:42:59.153Z,9.11
2019-03-03T21:45:30.601Z,9.17
2019-03-03T21:48:01.556Z,9.19
2019-03-03T21:50:32.803Z,9.20
2019-03-03T21:53:03.852Z,9.21
2019-03-03T21:55:34.804Z,9.26
2019-03-03T21:58:07.043Z,9.26
2019-03-03T22:00:40.850Z,9.33
2019-03-03T22:03:11.809Z,9.34
2019-03-03T22:05:42.847Z,9.31
2019-03-03T22:08:13.708Z,9.29
2019-03-03T22:10:44.693Z,9.32
2019-03-03T22:13:15.762Z,9.34
2019-03-03T22:15:46.672Z,9.42
2019-03-03T22:18:17.585Z,9.38
2019-03-03T22:20:48.605Z,9.41
2019-03-03T22:23:19.630Z,9.41
2019-03-03T22:25:50.610Z,9.38
2019-03-03T22:28:21.617Z,9.36
2019-03-03T22:30:52.945Z,9.36
2019-03-03T22:33:23.918Z,9.39
2019-03-03T22:35:54.913Z,9.38
2019-03-03T22:38:25.879Z,9.35
2019-03-03T22:40:56.915Z,9.29
2019-03-03T22:43:27.949Z,9.34
2019-03-03T22:45:58.885Z,9.32
2019-03-03T22:48:29.836Z,9.37
2019-03-03T22:51:00.825Z,9.41
2019-03-03T22:53:31.808Z,9.44
2019-03-03T22:56:02.744Z,9.52
2019-03-03T22:58:33.679Z,9.52
2019-03-03T23:01:08.040Z,9.47
2019-03-03T23:03:42.044Z,9.51
2019-03-03T23:06:18.891Z,9.54
2019-03-03T23:08:55.744Z,9.57
2019-03-03T23:11:56.937Z,9.60
2019-03-03T23:14:59.725Z,9.65
2019-03-03T23:17:57.789Z,9.71
2019-03-03T23:20:31.687Z,9.73
2019-03-03T23:23:20.965Z,9.74
2019-03-03T23:25:52.936Z,9.79
2019-03-03T23:28:24.387Z,9.78
2019-03-03T23:30:55.501Z,9.80
2019-03-03T23:33:26.435Z,9.77
2019-03-03T23:35:57.396Z,9.69
2019-03-03T23:38:28.499Z,9.64
2019-03-03T23:40:59.547Z,9.60
2019-03-03T23:43:30.413Z,9.61
2019-03-03T23:46:01.423Z,9.64
2019-03-03T23:48:32.387Z,9.75
2019-03-03T23:51:06.279Z,9.86
2019-03-03T23:53:37.664Z,9.89
2019-03-03T23:56:08.703Z,9.93
2019-03-03T23:58:39.886Z,9.92
